sensor_id;sensor_type;location;lat;lon;timestamp;P1;durP1;ratioP1;P2;durP2;ratioP2
64387;SDS011;50709;52.648;4.764;2023-02-15T00:01:06;27.73;;;17.42;;
64387;SDS011;50709;52.648;4.764;2023-02-15T00:03:32;28.88;;;17.27;;
64387;SDS011;50709;52.648;4.764;2023-02-15T00:05:58;30.85;;;19.10;;
64387;SDS011;50709;52.648;4.764;2023-02-15T00:08:23;29.05;;;18.45;;
64387;SDS011;50709;52.648;4.764;2023-02-15T00:10:49;29.73;;;18.30;;
64387;SDS011;50709;52.648;4.764;2023-02-15T00:13:14;29.30;;;17.52;;
64387;SDS011;50709;52.648;4.764;2023-02-15T00:15:40;29.92;;;18.38;;
64387;SDS011;50709;52.648;4.764;2023-02-15T00:18:05;29.88;;;18.83;;
64387;SDS011;50709;52.648;4.764;2023-02-15T00:20:31;27.95;;;17.27;;
64387;SDS011;50709;52.648;4.764;2023-02-15T00:22:56;28.13;;;17.45;;
64387;SDS011;50709;52.648;4.764;2023-02-15T00:25:21;26.90;;;17.55;;
64387;SDS011;50709;52.648;4.764;2023-02-15T00:27:47;30.65;;;18.20;;
64387;SDS011;50709;52.648;4.764;2023-02-15T00:30:12;29.13;;;18.02;;
64387;SDS011;50709;52.648;4.764;2023-02-15T00:32:38;27.77;;;17.77;;
64387;SDS011;50709;52.648;4.764;2023-02-15T00:35:03;30.95;;;18.42;;
64387;SDS011;50709;52.648;4.764;2023-02-15T00:37:29;27.95;;;16.65;;
64387;SDS011;50709;52.648;4.764;2023-02-15T00:39:54;30.10;;;18.17;;
64387;SDS011;50709;52.648;4.764;2023-02-15T00:42:20;28.38;;;17.58;;
64387;SDS011;50709;52.648;4.764;2023-02-15T00:44:45;27.05;;;17.05;;
64387;SDS011;50709;52.648;4.764;2023-02-15T00:47:11;27.77;;;17.10;;
64387;SDS011;50709;52.648;4.764;2023-02-15T00:49:36;29.75;;;18.08;;
64387;SDS011;50709;52.648;4.764;2023-02-15T00:52:01;28.42;;;17.75;;
64387;SDS011;50709;52.648;4.764;2023-02-15T00:54:27;28.17;;;16.92;;
64387;SDS011;50709;52.648;4.764;2023-02-15T00:56:52;28.80;;;17.45;;
64387;SDS011;50709;52.648;4.764;2023-02-15T00:59:18;30.38;;;17.50;;
64387;SDS011;50709;52.648;4.764;2023-02-15T01:01:43;26.75;;;17.08;;
64387;SDS011;50709;52.648;4.764;2023-02-15T01:04:08;27.13;;;15.48;;
64387;SDS011;50709;52.648;4.764;2023-02-15T01:06:34;25.85;;;16.67;;
64387;SDS011;50709;52.648;4.764;2023-02-15T01:08:59;26.58;;;16.63;;
64387;SDS011;50709;52.648;4.764;2023-02-15T01:11:24;27.45;;;17.10;;
64387;SDS011;50709;52.648;4.764;2023-02-15T01:13:51;29.48;;;17.70;;
64387;SDS011;50709;52.648;4.764;2023-02-15T01:16:18;28.58;;;17.45;;
64387;SDS011;50709;52.648;4.764;2023-02-15T01:18:44;28.90;;;17.33;;
64387;SDS011;50709;52.648;4.764;2023-02-15T01:21:13;33.13;;;19.25;;
64387;SDS011;50709;52.648;4.764;2023-02-15T01:23:41;28.23;;;18.17;;
64387;SDS011;50709;52.648;4.764;2023-02-15T01:26:08;28.42;;;17.48;;
64387;SDS011;50709;52.648;4.764;2023-02-15T01:28:34;32.67;;;18.55;;
64387;SDS011;50709;52.648;4.764;2023-02-15T01:31:03;29.67;;;17.63;;
64387;SDS011;50709;52.648;4.764;2023-02-15T01:33:30;29.23;;;17.60;;
64387;SDS011;50709;52.648;4.764;2023-02-15T01:35:56;31.98;;;18.33;;
64387;SDS011;50709;52.648;4.764;2023-02-15T01:38:22;30.45;;;18.67;;
64387;SDS011;50709;52.648;4.764;2023-02-15T01:40:50;29.23;;;18.42;;
64387;SDS011;50709;52.648;4.764;2023-02-15T01:43:17;30.48;;;17.83;;
64387;SDS011;50709;52.648;4.764;2023-02-15T01:45:43;27.23;;;17.02;;
64387;SDS011;50709;52.648;4.764;2023-02-15T01:50:48;31.75;;;19.80;;
64387;SDS011;50709;52.648;4.764;2023-02-15T01:58:31;30.38;;;18.38;;
64387;SDS011;50709;52.648;4.764;2023-02-15T02:00:59;29.98;;;18.63;;
64387;SDS011;50709;52.648;4.764;2023-02-15T02:03:30;31.52;;;18.50;;
64387;SDS011;50709;52.648;4.764;2023-02-15T02:06:12;30.48;;;17.90;;
64387;SDS011;50709;52.648;4.764;2023-02-15T02:08:38;28.83;;;16.92;;
64387;SDS011;50709;52.648;4.764;2023-02-15T02:11:09;28.25;;;17.30;;
64387;SDS011;50709;52.648;4.764;2023-02-15T02:13:39;29.00;;;17.85;;
64387;SDS011;50709;52.648;4.764;2023-02-15T02:28:12;31.20;;;18.48;;
64387;SDS011;50709;52.648;4.764;2023-02-15T02:36:45;29.73;;;18.38;;
64387;SDS011;50709;52.648;4.764;2023-02-15T02:39:37;31.98;;;18.60;;
64387;SDS011;50709;52.648;4.764;2023-02-15T02:42:17;29.83;;;17.77;;
64387;SDS011;50709;52.648;4.764;2023-02-15T02:44:54;29.00;;;17.77;;
64387;SDS011;50709;52.648;4.764;2023-02-15T02:47:43;28.33;;;18.15;;
64387;SDS011;50709;52.648;4.764;2023-02-15T02:50:15;28.05;;;17.35;;
64387;SDS011;50709;52.648;4.764;2023-02-15T02:52:50;27.58;;;17.67;;
64387;SDS011;50709;52.648;4.764;2023-02-15T03:00:23;25.65;;;17.50;;
64387;SDS011;50709;52.648;4.764;2023-02-15T03:02:52;23.67;;;16.55;;
64387;SDS011;50709;52.648;4.764;2023-02-15T03:05:23;25.95;;;16.75;;
64387;SDS011;50709;52.648;4.764;2023-02-15T03:07:52;25.42;;;16.00;;
64387;SDS011;50709;52.648;4.764;2023-02-15T03:10:22;25.15;;;16.90;;
64387;SDS011;50709;52.648;4.764;2023-02-15T03:12:48;25.77;;;17.85;;
64387;SDS011;50709;52.648;4.764;2023-02-15T03:17:45;23.75;;;15.65;;
64387;SDS011;50709;52.648;4.764;2023-02-15T03:20:24;23.13;;;16.23;;
64387;SDS011;50709;52.648;4.764;2023-02-15T03:22:55;24.27;;;15.98;;
64387;SDS011;50709;52.648;4.764;2023-02-15T03:25:34;21.45;;;15.60;;
64387;SDS011;50709;52.648;4.764;2023-02-15T03:28:07;22.83;;;15.95;;
64387;SDS011;50709;52.648;4.764;2023-02-15T03:30:38;19.33;;;14.82;;
64387;SDS011;50709;52.648;4.764;2023-02-15T03:33:05;20.95;;;15.30;;
64387;SDS011;50709;52.648;4.764;2023-02-15T03:38:25;20.42;;;14.43;;
64387;SDS011;50709;52.648;4.764;2023-02-15T03:40:57;20.48;;;14.50;;
64387;SDS011;50709;52.648;4.764;2023-02-15T03:43:52;21.42;;;15.10;;
64387;SDS011;50709;52.648;4.764;2023-02-15T03:46:28;20.15;;;14.32;;
64387;SDS011;50709;52.648;4.764;2023-02-15T03:49:12;20.35;;;15.15;;
64387;SDS011;50709;52.648;4.764;2023-02-15T03:51:43;20.00;;;14.18;;
64387;SDS011;50709;52.648;4.764;2023-02-15T03:54:14;20.90;;;14.40;;
64387;SDS011;50709;52.648;4.764;2023-02-15T03:57:03;20.60;;;14.85;;
64387;SDS011;50709;52.648;4.764;2023-02-15T03:59:47;21.58;;;15.02;;
64387;SDS011;50709;52.648;4.764;2023-02-15T04:02:35;20.27;;;13.93;;
64387;SDS011;50709;52.648;4.764;2023-02-15T04:05:05;21.67;;;14.63;;
64387;SDS011;50709;52.648;4.764;2023-02-15T04:07:30;21.35;;;14.48;;
64387;SDS011;50709;52.648;4.764;2023-02-15T04:09:55;20.33;;;14.95;;
64387;SDS011;50709;52.648;4.764;2023-02-15T04:12:39;20.73;;;14.55;;
64387;SDS011;50709;52.648;4.764;2023-02-15T04:15:05;20.30;;;14.43;;
64387;SDS011;50709;52.648;4.764;2023-02-15T04:17:49;20.95;;;15.20;;
64387;SDS011;50709;52.648;4.764;2023-02-15T04:20:14;20.75;;;14.77;;
64387;SDS011;50709;52.648;4.764;2023-02-15T04:23:05;22.52;;;14.77;;
64387;SDS011;50709;52.648;4.764;2023-02-15T04:25:49;22.65;;;15.20;;
64387;SDS011;50709;52.648;4.764;2023-02-15T04:28:15;20.95;;;14.60;;
64387;SDS011;50709;52.648;4.764;2023-02-15T04:30:40;20.92;;;14.90;;
64387;SDS011;50709;52.648;4.764;2023-02-15T04:33:05;21.25;;;14.48;;
64387;SDS011;50709;52.648;4.764;2023-02-15T04:35:31;19.58;;;14.18;;
64387;SDS011;50709;52.648;4.764;2023-02-15T04:37:58;21.38;;;15.30;;
64387;SDS011;50709;52.648;4.764;2023-02-15T04:40:23;21.60;;;14.98;;
64387;SDS011;50709;52.648;4.764;2023-02-15T04:42:49;21.77;;;14.50;;
64387;SDS011;50709;52.648;4.764;2023-02-15T04:45:15;21.00;;;14.82;;
64387;SDS011;50709;52.648;4.764;2023-02-15T04:47:40;21.35;;;14.70;;
64387;SDS011;50709;52.648;4.764;2023-02-15T04:50:07;22.30;;;15.02;;
64387;SDS011;50709;52.648;4.764;2023-02-15T04:52:32;22.13;;;15.52;;
64387;SDS011;50709;52.648;4.764;2023-02-15T04:54:58;22.15;;;15.32;;
64387;SDS011;50709;52.648;4.764;2023-02-15T04:57:23;22.13;;;15.40;;
64387;SDS011;50709;52.648;4.764;2023-02-15T04:59:48;26.80;;;16.33;;
64387;SDS011;50709;52.648;4.764;2023-02-15T05:02:14;22.27;;;16.27;;
64387;SDS011;50709;52.648;4.764;2023-02-15T05:04:39;23.25;;;15.40;;
64387;SDS011;50709;52.648;4.764;2023-02-15T05:07:05;20.58;;;14.50;;
64387;SDS011;50709;52.648;4.764;2023-02-15T05:09:30;23.02;;;14.57;;
64387;SDS011;50709;52.648;4.764;2023-02-15T05:11:55;22.13;;;14.35;;
64387;SDS011;50709;52.648;4.764;2023-02-15T05:14:21;25.98;;;16.25;;
64387;SDS011;50709;52.648;4.764;2023-02-15T05:16:46;23.38;;;15.50;;
64387;SDS011;50709;52.648;4.764;2023-02-15T05:19:12;21.40;;;14.27;;
64387;SDS011;50709;52.648;4.764;2023-02-15T05:21:37;24.25;;;16.27;;
64387;SDS011;50709;52.648;4.764;2023-02-15T05:24:02;24.30;;;15.98;;
64387;SDS011;50709;52.648;4.764;2023-02-15T05:26:48;23.83;;;17.05;;
64387;SDS011;50709;52.648;4.764;2023-02-15T05:29:32;23.00;;;14.93;;
64387;SDS011;50709;52.648;4.764;2023-02-15T05:31:57;24.17;;;17.05;;
64387;SDS011;50709;52.648;4.764;2023-02-15T05:34:23;25.85;;;16.42;;
64387;SDS011;50709;52.648;4.764;2023-02-15T05:36:48;24.80;;;16.42;;
64387;SDS011;50709;52.648;4.764;2023-02-15T05:39:14;28.92;;;17.67;;
64387;SDS011;50709;52.648;4.764;2023-02-15T05:41:39;25.88;;;17.15;;
64387;SDS011;50709;52.648;4.764;2023-02-15T05:44:04;39.22;;;23.98;;
64387;SDS011;50709;52.648;4.764;2023-02-15T05:46:30;30.95;;;19.30;;
64387;SDS011;50709;52.648;4.764;2023-02-15T05:48:55;25.13;;;16.65;;
64387;SDS011;50709;52.648;4.764;2023-02-15T05:51:20;23.15;;;16.45;;
64387;SDS011;50709;52.648;4.764;2023-02-15T05:53:46;27.15;;;17.42;;
64387;SDS011;50709;52.648;4.764;2023-02-15T05:56:11;22.98;;;15.40;;
64387;SDS011;50709;52.648;4.764;2023-02-15T05:58:38;23.40;;;15.98;;
64387;SDS011;50709;52.648;4.764;2023-02-15T06:01:14;23.38;;;15.45;;
64387;SDS011;50709;52.648;4.764;2023-02-15T06:03:42;24.50;;;17.15;;
64387;SDS011;50709;52.648;4.764;2023-02-15T06:06:07;32.97;;;19.17;;
64387;SDS011;50709;52.648;4.764;2023-02-15T06:08:33;23.88;;;15.85;;
64387;SDS011;50709;52.648;4.764;2023-02-15T06:11:00;26.55;;;16.55;;
64387;SDS011;50709;52.648;4.764;2023-02-15T06:13:25;24.45;;;16.27;;
64387;SDS011;50709;52.648;4.764;2023-02-15T06:15:50;23.00;;;15.73;;
64387;SDS011;50709;52.648;4.764;2023-02-15T06:18:16;23.48;;;16.00;;
64387;SDS011;50709;52.648;4.764;2023-02-15T06:20:41;22.02;;;15.30;;
64387;SDS011;50709;52.648;4.764;2023-02-15T06:23:06;27.52;;;17.85;;
64387;SDS011;50709;52.648;4.764;2023-02-15T06:25:32;26.67;;;16.35;;
64387;SDS011;50709;52.648;4.764;2023-02-15T06:27:57;25.45;;;17.70;;
64387;SDS011;50709;52.648;4.764;2023-02-15T06:30:23;26.27;;;17.40;;
64387;SDS011;50709;52.648;4.764;2023-02-15T06:32:48;19.13;;;11.73;;
64387;SDS011;50709;52.648;4.764;2023-02-15T06:35:13;24.27;;;15.63;;
64387;SDS011;50709;52.648;4.764;2023-02-15T06:37:39;24.48;;;16.73;;
64387;SDS011;50709;52.648;4.764;2023-02-15T06:40:04;23.83;;;16.30;;
64387;SDS011;50709;52.648;4.764;2023-02-15T06:42:31;23.10;;;15.50;;
64387;SDS011;50709;52.648;4.764;2023-02-15T06:44:56;24.83;;;16.83;;
64387;SDS011;50709;52.648;4.764;2023-02-15T06:47:22;22.15;;;15.13;;
64387;SDS011;50709;52.648;4.764;2023-02-15T06:49:47;22.77;;;14.75;;
64387;SDS011;50709;52.648;4.764;2023-02-15T06:52:12;22.83;;;15.68;;
64387;SDS011;50709;52.648;4.764;2023-02-15T06:54:38;23.27;;;15.23;;
64387;SDS011;50709;52.648;4.764;2023-02-15T06:57:03;24.85;;;16.65;;
64387;SDS011;50709;52.648;4.764;2023-02-15T06:59:29;24.30;;;16.60;;
64387;SDS011;50709;52.648;4.764;2023-02-15T07:01:54;25.83;;;16.63;;
64387;SDS011;50709;52.648;4.764;2023-02-15T07:04:19;26.15;;;16.55;;
64387;SDS011;50709;52.648;4.764;2023-02-15T07:06:45;27.15;;;16.73;;
64387;SDS011;50709;52.648;4.764;2023-02-15T07:09:10;25.15;;;17.48;;
64387;SDS011;50709;52.648;4.764;2023-02-15T07:11:37;31.80;;;18.75;;
64387;SDS011;50709;52.648;4.764;2023-02-15T07:14:21;28.38;;;18.02;;
64387;SDS011;50709;52.648;4.764;2023-02-15T07:16:47;26.77;;;17.33;;
64387;SDS011;50709;52.648;4.764;2023-02-15T07:19:12;28.73;;;18.45;;
64387;SDS011;50709;52.648;4.764;2023-02-15T07:21:38;29.40;;;17.65;;
64387;SDS011;50709;52.648;4.764;2023-02-15T07:24:03;28.02;;;17.02;;
64387;SDS011;50709;52.648;4.764;2023-02-15T07:26:29;30.95;;;18.67;;
64387;SDS011;50709;52.648;4.764;2023-02-15T07:28:56;30.17;;;18.13;;
64387;SDS011;50709;52.648;4.764;2023-02-15T07:31:22;27.70;;;16.95;;
64387;SDS011;50709;52.648;4.764;2023-02-15T07:33:47;27.52;;;17.55;;
64387;SDS011;50709;52.648;4.764;2023-02-15T07:36:13;29.42;;;18.95;;
64387;SDS011;50709;52.648;4.764;2023-02-15T07:38:39;28.60;;;17.77;;
64387;SDS011;50709;52.648;4.764;2023-02-15T07:41:07;28.20;;;17.42;;
64387;SDS011;50709;52.648;4.764;2023-02-15T07:43:36;33.45;;;18.23;;
64387;SDS011;50709;52.648;4.764;2023-02-15T07:46:04;31.33;;;18.48;;
64387;SDS011;50709;52.648;4.764;2023-02-15T07:48:32;31.75;;;18.88;;
64387;SDS011;50709;52.648;4.764;2023-02-15T07:50:59;35.42;;;19.08;;
64387;SDS011;50709;52.648;4.764;2023-02-15T07:53:25;32.47;;;19.38;;
64387;SDS011;50709;52.648;4.764;2023-02-15T07:55:50;33.58;;;19.20;;
64387;SDS011;50709;52.648;4.764;2023-02-15T07:58:17;38.72;;;20.25;;
64387;SDS011;50709;52.648;4.764;2023-02-15T08:00:43;30.15;;;18.27;;
64387;SDS011;50709;52.648;4.764;2023-02-15T08:03:26;35.90;;;18.75;;
64387;SDS011;50709;52.648;4.764;2023-02-15T08:05:55;31.60;;;18.45;;
64387;SDS011;50709;52.648;4.764;2023-02-15T08:08:22;37.85;;;20.45;;
64387;SDS011;50709;52.648;4.764;2023-02-15T08:11:19;35.45;;;20.05;;
64387;SDS011;50709;52.648;4.764;2023-02-15T08:13:53;37.42;;;18.92;;
64387;SDS011;50709;52.648;4.764;2023-02-15T08:19:21;34.92;;;20.17;;
64387;SDS011;50709;52.648;4.764;2023-02-15T08:21:51;33.63;;;19.67;;
64387;SDS011;50709;52.648;4.764;2023-02-15T08:24:25;40.38;;;21.05;;
64387;SDS011;50709;52.648;4.764;2023-02-15T08:26:52;36.50;;;19.08;;
64387;SDS011;50709;52.648;4.764;2023-02-15T08:29:19;33.25;;;20.30;;
64387;SDS011;50709;52.648;4.764;2023-02-15T08:31:47;38.05;;;20.85;;
64387;SDS011;50709;52.648;4.764;2023-02-15T08:34:15;33.67;;;19.65;;
64387;SDS011;50709;52.648;4.764;2023-02-15T08:36:42;37.50;;;20.85;;
64387;SDS011;50709;52.648;4.764;2023-02-15T08:39:10;32.65;;;19.55;;
64387;SDS011;50709;52.648;4.764;2023-02-15T08:41:36;34.95;;;19.25;;
64387;SDS011;50709;52.648;4.764;2023-02-15T08:44:04;35.40;;;20.02;;
64387;SDS011;50709;52.648;4.764;2023-02-15T08:46:35;31.90;;;17.90;;
64387;SDS011;50709;52.648;4.764;2023-02-15T08:49:03;36.97;;;20.75;;
64387;SDS011;50709;52.648;4.764;2023-02-15T08:51:32;38.95;;;21.10;;
64387;SDS011;50709;52.648;4.764;2023-02-15T08:54:01;35.65;;;20.00;;
64387;SDS011;50709;52.648;4.764;2023-02-15T08:56:34;35.65;;;20.42;;
64387;SDS011;50709;52.648;4.764;2023-02-15T08:59:01;42.75;;;23.23;;
64387;SDS011;50709;52.648;4.764;2023-02-15T09:01:29;37.78;;;21.45;;
64387;SDS011;50709;52.648;4.764;2023-02-15T09:04:00;37.95;;;20.15;;
64387;SDS011;50709;52.648;4.764;2023-02-15T09:06:29;38.92;;;21.15;;
64387;SDS011;50709;52.648;4.764;2023-02-15T09:08:54;40.10;;;21.27;;
64387;SDS011;50709;52.648;4.764;2023-02-15T09:11:23;41.28;;;21.77;;
64387;SDS011;50709;52.648;4.764;2023-02-15T09:16:23;36.95;;;20.67;;
64387;SDS011;50709;52.648;4.764;2023-02-15T09:18:50;41.42;;;23.08;;
64387;SDS011;50709;52.648;4.764;2023-02-15T09:21:17;44.97;;;23.90;;
64387;SDS011;50709;52.648;4.764;2023-02-15T09:23:45;46.97;;;23.23;;
64387;SDS011;50709;52.648;4.764;2023-02-15T09:26:13;46.40;;;24.38;;
64387;SDS011;50709;52.648;4.764;2023-02-15T09:28:40;43.88;;;22.85;;
64387;SDS011;50709;52.648;4.764;2023-02-15T09:31:06;39.42;;;22.25;;
64387;SDS011;50709;52.648;4.764;2023-02-15T09:33:34;50.05;;;24.75;;
64387;SDS011;50709;52.648;4.764;2023-02-15T09:36:00;39.13;;;22.15;;
64387;SDS011;50709;52.648;4.764;2023-02-15T09:38:26;46.65;;;24.77;;
64387;SDS011;50709;52.648;4.764;2023-02-15T09:41:08;39.63;;;21.67;;
64387;SDS011;50709;52.648;4.764;2023-02-15T09:55:15;50.25;;;28.63;;
64387;SDS011;50709;52.648;4.764;2023-02-15T10:03:42;56.28;;;30.23;;
64387;SDS011;50709;52.648;4.764;2023-02-15T10:06:28;46.72;;;24.90;;
64387;SDS011;50709;52.648;4.764;2023-02-15T10:09:20;51.40;;;27.17;;
64387;SDS011;50709;52.648;4.764;2023-02-15T10:11:51;47.38;;;25.83;;
64387;SDS011;50709;52.648;4.764;2023-02-15T10:28:23;54.08;;;28.67;;
64387;SDS011;50709;52.648;4.764;2023-02-15T10:33:39;54.75;;;29.90;;
64387;SDS011;50709;52.648;4.764;2023-02-15T10:36:11;60.88;;;32.88;;
64387;SDS011;50709;52.648;4.764;2023-02-15T11:06:21;55.20;;;29.05;;
64387;SDS011;50709;52.648;4.764;2023-02-15T11:08:49;55.03;;;28.27;;
64387;SDS011;50709;52.648;4.764;2023-02-15T11:11:21;55.80;;;30.50;;
64387;SDS011;50709;52.648;4.764;2023-02-15T11:13:56;56.80;;;32.15;;
64387;SDS011;50709;52.648;4.764;2023-02-15T11:16:30;60.50;;;29.50;;
64387;SDS011;50709;52.648;4.764;2023-02-15T11:21:38;50.45;;;24.48;;
64387;SDS011;50709;52.648;4.764;2023-02-15T11:24:11;58.47;;;28.48;;
64387;SDS011;50709;52.648;4.764;2023-02-15T11:26:43;50.45;;;24.63;;
64387;SDS011;50709;52.648;4.764;2023-02-15T11:42:47;52.67;;;26.38;;
64387;SDS011;50709;52.648;4.764;2023-02-15T11:45:35;52.95;;;26.95;;
64387;SDS011;50709;52.648;4.764;2023-02-15T11:48:00;57.60;;;29.17;;
64387;SDS011;50709;52.648;4.764;2023-02-15T11:50:33;56.42;;;27.35;;
64387;SDS011;50709;52.648;4.764;2023-02-15T11:53:00;49.30;;;25.83;;
64387;SDS011;50709;52.648;4.764;2023-02-15T11:55:31;52.28;;;26.55;;
64387;SDS011;50709;52.648;4.764;2023-02-15T12:00:38;48.92;;;25.85;;
64387;SDS011;50709;52.648;4.764;2023-02-15T12:03:17;54.25;;;26.77;;
64387;SDS011;50709;52.648;4.764;2023-02-15T12:05:49;47.78;;;24.63;;
64387;SDS011;50709;52.648;4.764;2023-02-15T12:08:21;50.22;;;25.85;;
64387;SDS011;50709;52.648;4.764;2023-02-15T12:11:05;49.53;;;26.23;;
64387;SDS011;50709;52.648;4.764;2023-02-15T12:13:37;49.30;;;25.00;;
64387;SDS011;50709;52.648;4.764;2023-02-15T12:16:22;55.47;;;25.90;;
64387;SDS011;50709;52.648;4.764;2023-02-15T12:18:47;47.40;;;25.10;;
64387;SDS011;50709;52.648;4.764;2023-02-15T12:21:33;51.67;;;28.33;;
64387;SDS011;50709;52.648;4.764;2023-02-15T12:24:18;48.53;;;25.98;;
64387;SDS011;50709;52.648;4.764;2023-02-15T12:26:55;51.88;;;27.02;;
64387;SDS011;50709;52.648;4.764;2023-02-15T12:33:15;53.22;;;26.45;;
64387;SDS011;50709;52.648;4.764;2023-02-15T12:35:54;52.25;;;25.90;;
64387;SDS011;50709;52.648;4.764;2023-02-15T12:38:24;55.38;;;28.85;;
64387;SDS011;50709;52.648;4.764;2023-02-15T12:41:00;53.47;;;28.25;;
64387;SDS011;50709;52.648;4.764;2023-02-15T12:43:44;49.67;;;26.42;;
64387;SDS011;50709;52.648;4.764;2023-02-15T12:48:43;44.78;;;24.88;;
64387;SDS011;50709;52.648;4.764;2023-02-15T12:51:12;51.83;;;25.38;;
64387;SDS011;50709;52.648;4.764;2023-02-15T12:53:40;53.97;;;28.17;;
64387;SDS011;50709;52.648;4.764;2023-02-15T12:56:07;51.78;;;27.05;;
64387;SDS011;50709;52.648;4.764;2023-02-15T12:58:38;50.50;;;25.50;;
64387;SDS011;50709;52.648;4.764;2023-02-15T13:06:23;52.03;;;26.67;;
64387;SDS011;50709;52.648;4.764;2023-02-15T13:08:52;52.35;;;25.48;;
64387;SDS011;50709;52.648;4.764;2023-02-15T13:11:24;48.85;;;25.55;;
64387;SDS011;50709;52.648;4.764;2023-02-15T13:13:56;55.65;;;27.02;;
64387;SDS011;50709;52.648;4.764;2023-02-15T13:16:30;43.28;;;22.60;;
64387;SDS011;50709;52.648;4.764;2023-02-15T13:19:01;52.90;;;26.08;;
64387;SDS011;50709;52.648;4.764;2023-02-15T13:21:40;53.53;;;25.67;;
64387;SDS011;50709;52.648;4.764;2023-02-15T13:26:49;38.22;;;20.90;;
64387;SDS011;50709;52.648;4.764;2023-02-15T13:29:18;54.05;;;27.08;;
64387;SDS011;50709;52.648;4.764;2023-02-15T13:31:48;48.35;;;24.85;;
64387;SDS011;50709;52.648;4.764;2023-02-15T13:34:17;48.75;;;25.23;;
64387;SDS011;50709;52.648;4.764;2023-02-15T13:39:20;45.33;;;23.95;;
64387;SDS011;50709;52.648;4.764;2023-02-15T13:55:40;53.78;;;24.90;;
64387;SDS011;50709;52.648;4.764;2023-02-15T13:58:20;47.10;;;24.50;;
64387;SDS011;50709;52.648;4.764;2023-02-15T14:01:05;51.60;;;24.08;;
64387;SDS011;50709;52.648;4.764;2023-02-15T14:15:08;34.22;;;17.80;;
64387;SDS011;50709;52.648;4.764;2023-02-15T14:20:23;49.88;;;25.02;;
64387;SDS011;50709;52.648;4.764;2023-02-15T14:22:54;41.00;;;21.10;;
64387;SDS011;50709;52.648;4.764;2023-02-15T14:25:52;53.03;;;28.25;;
64387;SDS011;50709;52.648;4.764;2023-02-15T14:31:13;51.75;;;27.30;;
64387;SDS011;50709;52.648;4.764;2023-02-15T14:33:41;53.38;;;25.60;;
64387;SDS011;50709;52.648;4.764;2023-02-15T14:36:18;41.47;;;21.95;;
64387;SDS011;50709;52.648;4.764;2023-02-15T14:39:06;52.33;;;24.65;;
64387;SDS011;50709;52.648;4.764;2023-02-15T14:42:04;49.80;;;24.05;;
64387;SDS011;50709;52.648;4.764;2023-02-15T14:44:50;58.42;;;24.92;;
64387;SDS011;50709;52.648;4.764;2023-02-15T14:47:26;51.78;;;26.15;;
64387;SDS011;50709;52.648;4.764;2023-02-15T14:49:59;58.00;;;27.23;;
64387;SDS011;50709;52.648;4.764;2023-02-15T14:56:04;50.05;;;25.92;;
64387;SDS011;50709;52.648;4.764;2023-02-15T14:58:54;48.25;;;22.98;;
64387;SDS011;50709;52.648;4.764;2023-02-15T15:01:40;52.13;;;23.42;;
64387;SDS011;50709;52.648;4.764;2023-02-15T15:06:39;56.33;;;24.03;;
64387;SDS011;50709;52.648;4.764;2023-02-15T15:11:47;47.08;;;21.42;;
64387;SDS011;50709;52.648;4.764;2023-02-15T15:16:57;54.88;;;25.40;;
64387;SDS011;50709;52.648;4.764;2023-02-15T15:22:23;51.42;;;24.67;;
64387;SDS011;50709;52.648;4.764;2023-02-15T15:25:00;56.83;;;26.00;;
64387;SDS011;50709;52.648;4.764;2023-02-15T15:27:42;47.35;;;24.63;;
64387;SDS011;50709;52.648;4.764;2023-02-15T15:38:45;43.08;;;20.50;;
64387;SDS011;50709;52.648;4.764;2023-02-15T15:41:39;47.22;;;23.92;;
64387;SDS011;50709;52.648;4.764;2023-02-15T15:49:29;46.65;;;23.20;;
64387;SDS011;50709;52.648;4.764;2023-02-15T15:51:57;48.88;;;24.05;;
64387;SDS011;50709;52.648;4.764;2023-02-15T15:54:26;47.40;;;23.83;;
64387;SDS011;50709;52.648;4.764;2023-02-15T15:56:56;46.15;;;23.35;;
64387;SDS011;50709;52.648;4.764;2023-02-15T15:59:24;54.60;;;25.52;;
64387;SDS011;50709;52.648;4.764;2023-02-15T16:01:52;46.08;;;22.52;;
64387;SDS011;50709;52.648;4.764;2023-02-15T16:04:26;48.50;;;23.70;;
64387;SDS011;50709;52.648;4.764;2023-02-15T16:12:30;49.15;;;24.17;;
64387;SDS011;50709;52.648;4.764;2023-02-15T16:14:58;45.33;;;22.95;;
64387;SDS011;50709;52.648;4.764;2023-02-15T16:17:30;44.70;;;22.40;;
64387;SDS011;50709;52.648;4.764;2023-02-15T16:19:59;45.63;;;23.27;;
64387;SDS011;50709;52.648;4.764;2023-02-15T16:22:32;45.70;;;22.55;;
64387;SDS011;50709;52.648;4.764;2023-02-15T16:27:43;45.85;;;22.98;;
64387;SDS011;50709;52.648;4.764;2023-02-15T16:30:32;47.25;;;21.83;;
64387;SDS011;50709;52.648;4.764;2023-02-15T16:35:33;45.92;;;24.05;;
64387;SDS011;50709;52.648;4.764;2023-02-15T16:38:00;50.17;;;23.80;;
64387;SDS011;50709;52.648;4.764;2023-02-15T16:40:34;43.17;;;21.15;;
64387;SDS011;50709;52.648;4.764;2023-02-15T16:43:04;44.58;;;23.17;;
64387;SDS011;50709;52.648;4.764;2023-02-15T16:45:35;43.45;;;21.92;;
64387;SDS011;50709;52.648;4.764;2023-02-15T16:48:05;43.67;;;22.88;;
64387;SDS011;50709;52.648;4.764;2023-02-15T16:50:36;44.33;;;21.65;;
64387;SDS011;50709;52.648;4.764;2023-02-15T16:53:03;44.95;;;21.65;;
64387;SDS011;50709;52.648;4.764;2023-02-15T16:55:35;41.20;;;21.40;;
64387;SDS011;50709;52.648;4.764;2023-02-15T16:58:04;49.53;;;23.83;;
64387;SDS011;50709;52.648;4.764;2023-02-15T17:00:32;44.80;;;20.95;;
64387;SDS011;50709;52.648;4.764;2023-02-15T17:05:52;51.42;;;23.52;;
64387;SDS011;50709;52.648;4.764;2023-02-15T17:08:17;41.97;;;21.75;;
64387;SDS011;50709;52.648;4.764;2023-02-15T17:16:44;42.80;;;21.05;;
64387;SDS011;50709;52.648;4.764;2023-02-15T17:21:54;39.30;;;20.88;;
64387;SDS011;50709;52.648;4.764;2023-02-15T17:24:31;40.10;;;21.15;;
64387;SDS011;50709;52.648;4.764;2023-02-15T17:26:59;38.50;;;20.45;;
64387;SDS011;50709;52.648;4.764;2023-02-15T17:29:37;46.58;;;21.95;;
64387;SDS011;50709;52.648;4.764;2023-02-15T17:32:05;38.70;;;21.67;;
64387;SDS011;50709;52.648;4.764;2023-02-15T17:37:26;45.13;;;25.65;;
64387;SDS011;50709;52.648;4.764;2023-02-15T17:39:51;44.60;;;22.95;;
64387;SDS011;50709;52.648;4.764;2023-02-15T17:42:17;44.53;;;24.52;;
64387;SDS011;50709;52.648;4.764;2023-02-15T17:44:42;38.22;;;22.83;;
64387;SDS011;50709;52.648;4.764;2023-02-15T17:47:09;41.35;;;23.02;;
64387;SDS011;50709;52.648;4.764;2023-02-15T17:49:47;47.15;;;24.65;;
64387;SDS011;50709;52.648;4.764;2023-02-15T17:52:14;48.55;;;24.35;;
64387;SDS011;50709;52.648;4.764;2023-02-15T17:54:41;48.28;;;24.77;;
64387;SDS011;50709;52.648;4.764;2023-02-15T17:57:26;44.10;;;23.75;;
64387;SDS011;50709;52.648;4.764;2023-02-15T17:59:52;44.58;;;23.73;;
64387;SDS011;50709;52.648;4.764;2023-02-15T18:02:37;46.65;;;23.60;;
64387;SDS011;50709;52.648;4.764;2023-02-15T18:05:22;45.70;;;24.92;;
64387;SDS011;50709;52.648;4.764;2023-02-15T18:08:12;48.15;;;25.08;;
64387;SDS011;50709;52.648;4.764;2023-02-15T18:10:58;45.33;;;25.15;;
64387;SDS011;50709;52.648;4.764;2023-02-15T18:13:42;46.10;;;25.33;;
64387;SDS011;50709;52.648;4.764;2023-02-15T18:16:12;41.85;;;24.20;;
64387;SDS011;50709;52.648;4.764;2023-02-15T18:18:39;43.17;;;23.40;;
64387;SDS011;50709;52.648;4.764;2023-02-15T18:21:05;45.42;;;25.02;;
64387;SDS011;50709;52.648;4.764;2023-02-15T18:23:34;46.03;;;24.45;;